sensor_id;sensor_type;location;lat;lon;timestamp;temperature;humidity
1277;DHT22;631;51.024;13.826;2024-02-21T00:01:50;8.90;99.90
1277;DHT22;631;51.024;13.826;2024-02-21T00:04:15;8.80;99.90
1277;DHT22;631;51.024;13.826;2024-02-21T00:06:41;8.90;99.90
1277;DHT22;631;51.024;13.826;2024-02-21T00:09:07;8.80;99.90
1277;DHT22;631;51.024;13.826;2024-02-21T00:11:35;8.80;99.90
1277;DHT22;631;51.024;13.826;2024-02-21T00:14:00;8.90;99.90
1277;DHT22;631;51.024;13.826;2024-02-21T00:16:26;8.90;99.90
1277;DHT22;631;51.024;13.826;2024-02-21T00:18:52;8.90;99.90
1277;DHT22;631;51.024;13.826;2024-02-21T00:21:17;8.90;99.90
1277;DHT22;631;51.024;13.826;2024-02-21T00:23:46;8.90;99.90
1277;DHT22;631;51.024;13.826;2024-02-21T00:26:15;8.90;99.90
1277;DHT22;631;51.024;13.826;2024-02-21T00:28:40;8.90;99.90
1277;DHT22;631;51.024;13.826;2024-02-21T00:31:06;8.90;99.90
1277;DHT22;631;51.024;13.826;2024-02-21T00:33:32;8.90;99.90
1277;DHT22;631;51.024;13.826;2024-02-21T00:35:57;8.90;99.90
1277;DHT22;631;51.024;13.826;2024-02-21T00:38:23;8.90;99.90
1277;DHT22;631;51.024;13.826;2024-02-21T00:40:48;9.00;99.90
1277;DHT22;631;51.024;13.826;2024-02-21T00:43:14;9.00;99.90
1277;DHT22;631;51.024;13.826;2024-02-21T00:45:40;8.90;99.90
1277;DHT22;631;51.024;13.826;2024-02-21T00:48:06;8.90;99.90
1277;DHT22;631;51.024;13.826;2024-02-21T00:50:31;8.90;99.90
1277;DHT22;631;51.024;13.826;2024-02-21T00:52:57;9.00;99.90
1277;DHT22;631;51.024;13.826;2024-02-21T00:55:23;9.00;99.90
1277;DHT22;631;51.024;13.826;2024-02-21T00:57:48;9.00;99.90
1277;DHT22;631;51.024;13.826;2024-02-21T01:00:14;9.00;99.90
1277;DHT22;631;51.024;13.826;2024-02-21T01:02:40;9.00;99.90
1277;DHT22;631;51.024;13.826;2024-02-21T01:05:06;9.00;99.90
1277;DHT22;631;51.024;13.826;2024-02-21T01:07:32;9.00;99.90
1277;DHT22;631;51.024;13.826;2024-02-21T01:09:57;9.00;99.90
1277;DHT22;631;51.024;13.826;2024-02-21T01:12:23;9.00;99.90
1277;DHT22;631;51.024;13.826;2024-02-21T01:14:48;9.00;99.90
1277;DHT22;631;51.024;13.826;2024-02-21T01:17:15;9.00;99.90
1277;DHT22;631;51.024;13.826;2024-02-21T01:19:40;9.00;99.90
1277;DHT22;631;51.024;13.826;2024-02-21T01:22:06;9.00;99.90
1277;DHT22;631;51.024;13.826;2024-02-21T01:24:32;9.00;99.90
1277;DHT22;631;51.024;13.826;2024-02-21T01:26:57;9.00;99.90
1277;DHT22;631;51.024;13.826;2024-02-21T01:29:23;9.00;99.90
1277;DHT22;631;51.024;13.826;2024-02-21T01:31:49;9.00;99.90
1277;DHT22;631;51.024;13.826;2024-02-21T01:34:14;9.10;99.90
1277;DHT22;631;51.024;13.826;2024-02-21T01:36:40;9.10;99.90
1277;DHT22;631;51.024;13.826;2024-02-21T01:39:06;9.10;99.90
1277;DHT22;631;51.024;13.826;2024-02-21T01:41:32;9.00;99.90
1277;DHT22;631;51.024;13.826;2024-02-21T01:43:58;9.10;99.90
1277;DHT22;631;51.024;13.826;2024-02-21T01:46:24;9.10;99.90
1277;DHT22;631;51.024;13.826;2024-02-21T01:49:02;9.00;99.90
1277;DHT22;631;51.024;13.826;2024-02-21T01:51:30;9.00;99.90
1277;DHT22;631;51.024;13.826;2024-02-21T01:53:56;9.00;99.90
1277;DHT22;631;51.024;13.826;2024-02-21T01:56:22;9.00;99.90
1277;DHT22;631;51.024;13.826;2024-02-21T01:58:49;8.90;99.90
1277;DHT22;631;51.024;13.826;2024-02-21T02:01:16;8.90;99.90
1277;DHT22;631;51.024;13.826;2024-02-21T02:03:42;8.90;99.90
1277;DHT22;631;51.024;13.826;2024-02-21T02:06:10;8.90;99.90
1277;DHT22;631;51.024;13.826;2024-02-21T02:08:35;8.80;99.90
1277;DHT22;631;51.024;13.826;2024-02-21T02:11:02;8.90;99.90
1277;DHT22;631;51.024;13.826;2024-02-21T02:13:27;8.80;99.90
1277;DHT22;631;51.024;13.826;2024-02-21T02:15:53;8.80;99.90
1277;DHT22;631;51.024;13.826;2024-02-21T02:18:19;8.70;99.90
1277;DHT22;631;51.024;13.826;2024-02-21T02:20:45;8.80;99.90
1277;DHT22;631;51.024;13.826;2024-02-21T02:23:24;8.70;99.90
1277;DHT22;631;51.024;13.826;2024-02-21T02:25:50;8.60;99.90
1277;DHT22;631;51.024;13.826;2024-02-21T02:28:19;8.70;99.90
1277;DHT22;631;51.024;13.826;2024-02-21T02:30:45;8.60;99.90
1277;DHT22;631;51.024;13.826;2024-02-21T02:33:11;8.60;99.90
1277;DHT22;631;51.024;13.826;2024-02-21T02:35:37;8.60;99.90
1277;DHT22;631;51.024;13.826;2024-02-21T02:38:03;8.60;99.90
1277;DHT22;631;51.024;13.826;2024-02-21T02:40:29;8.50;99.90
1277;DHT22;631;51.024;13.826;2024-02-21T02:42:55;8.50;99.90
1277;DHT22;631;51.024;13.826;2024-02-21T02:45:22;8.50;99.90
1277;DHT22;631;51.024;13.826;2024-02-21T02:47:49;8.50;99.90
1277;DHT22;631;51.024;13.826;2024-02-21T02:50:15;8.50;99.90
1277;DHT22;631;51.024;13.826;2024-02-21T02:52:40;8.50;99.90
1277;DHT22;631;51.024;13.826;2024-02-21T02:55:06;8.40;99.90
1277;DHT22;631;51.024;13.826;2024-02-21T02:57:32;8.40;99.90
1277;DHT22;631;51.024;13.826;2024-02-21T02:59:58;8.40;99.90
1277;DHT22;631;51.024;13.826;2024-02-21T03:02:24;8.40;99.90
1277;DHT22;631;51.024;13.826;2024-02-21T03:04:49;8.40;99.90
1277;DHT22;631;51.024;13.826;2024-02-21T03:07:15;8.50;99.90
1277;DHT22;631;51.024;13.826;2024-02-21T03:09:41;8.40;99.90
1277;DHT22;631;51.024;13.826;2024-02-21T03:12:10;8.40;99.90
1277;DHT22;631;51.024;13.826;2024-02-21T03:14:35;8.30;99.90
1277;DHT22;631;51.024;13.826;2024-02-21T03:17:01;8.30;99.90
1277;DHT22;631;51.024;13.826;2024-02-21T03:19:28;8.30;99.90
1277;DHT22;631;51.024;13.826;2024-02-21T03:21:54;8.20;99.90
1277;DHT22;631;51.024;13.826;2024-02-21T03:24:20;8.20;99.90
1277;DHT22;631;51.024;13.826;2024-02-21T03:26:46;8.20;99.90
1277;DHT22;631;51.024;13.826;2024-02-21T03:29:16;8.10;99.90
1277;DHT22;631;51.024;13.826;2024-02-21T03:31:42;8.20;99.90
1277;DHT22;631;51.024;13.826;2024-02-21T03:34:10;8.10;99.90
1277;DHT22;631;51.024;13.826;2024-02-21T03:36:36;8.10;99.90
1277;DHT22;631;51.024;13.826;2024-02-21T03:39:02;8.20;99.90
1277;DHT22;631;51.024;13.826;2024-02-21T03:41:28;8.20;99.90
1277;DHT22;631;51.024;13.826;2024-02-21T03:43:54;8.10;99.90
1277;DHT22;631;51.024;13.826;2024-02-21T03:46:19;8.10;99.90
1277;DHT22;631;51.024;13.826;2024-02-21T03:48:45;8.10;99.90
1277;DHT22;631;51.024;13.826;2024-02-21T03:51:11;8.10;99.90
1277;DHT22;631;51.024;13.826;2024-02-21T03:53:36;8.10;99.90
1277;DHT22;631;51.024;13.826;2024-02-21T03:56:03;8.10;99.90
1277;DHT22;631;51.024;13.826;2024-02-21T03:58:32;8.00;99.90
1277;DHT22;631;51.024;13.826;2024-02-21T04:01:00;8.00;99.90
1277;DHT22;631;51.024;13.826;2024-02-21T04:03:26;8.00;99.90
1277;DHT22;631;51.024;13.826;2024-02-21T04:05:52;8.00;99.90
1277;DHT22;631;51.024;13.826;2024-02-21T04:08:18;8.00;99.90
1277;DHT22;631;51.024;13.826;2024-02-21T04:10:43;8.00;99.90
1277;DHT22;631;51.024;13.826;2024-02-21T04:13:09;8.00;99.90
1277;DHT22;631;51.024;13.826;2024-02-21T04:15:35;8.10;99.90
1277;DHT22;631;51.024;13.826;2024-02-21T04:18:01;8.10;99.90
1277;DHT22;631;51.024;13.826;2024-02-21T04:20:26;8.10;99.90
1277;DHT22;631;51.024;13.826;2024-02-21T04:22:52;8.10;99.90
1277;DHT22;631;51.024;13.826;2024-02-21T04:25:18;8.10;99.90
1277;DHT22;631;51.024;13.826;2024-02-21T04:27:44;8.10;99.90
1277;DHT22;631;51.024;13.826;2024-02-21T04:30:10;8.20;99.90
1277;DHT22;631;51.024;13.826;2024-02-21T04:32:36;8.20;99.90
1277;DHT22;631;51.024;13.826;2024-02-21T04:35:01;8.20;99.90
1277;DHT22;631;51.024;13.826;2024-02-21T04:37:27;8.20;99.90
1277;DHT22;631;51.024;13.826;2024-02-21T04:43:05;8.50;99.90
1277;DHT22;631;51.024;13.826;2024-02-21T04:45:30;8.60;99.90
1277;DHT22;631;51.024;13.826;2024-02-21T04:47:56;8.70;99.90
1277;DHT22;631;51.024;13.826;2024-02-21T04:50:21;8.70;99.90
1277;DHT22;631;51.024;13.826;2024-02-21T04:52:47;8.70;99.90
1277;DHT22;631;51.024;13.826;2024-02-21T04:55:13;8.70;99.90
1277;DHT22;631;51.024;13.826;2024-02-21T04:57:38;8.70;99.90
1277;DHT22;631;51.024;13.826;2024-02-21T05:00:06;8.70;99.90
1277;DHT22;631;51.024;13.826;2024-02-21T05:02:31;8.80;99.90
1277;DHT22;631;51.024;13.826;2024-02-21T05:04:57;8.80;99.90
1277;DHT22;631;51.024;13.826;2024-02-21T05:07:22;8.80;99.90
1277;DHT22;631;51.024;13.826;2024-02-21T05:09:48;8.80;99.90
1277;DHT22;631;51.024;13.826;2024-02-21T05:12:14;8.80;99.90
1277;DHT22;631;51.024;13.826;2024-02-21T05:14:39;8.70;99.90
1277;DHT22;631;51.024;13.826;2024-02-21T05:17:05;8.70;99.90
1277;DHT22;631;51.024;13.826;2024-02-21T05:19:30;8.70;99.90
1277;DHT22;631;51.024;13.826;2024-02-21T05:21:56;8.70;99.90
1277;DHT22;631;51.024;13.826;2024-02-21T05:24:22;8.80;99.90
1277;DHT22;631;51.024;13.826;2024-02-21T05:26:47;8.80;99.90
1277;DHT22;631;51.024;13.826;2024-02-21T05:29:13;8.80;99.90
1277;DHT22;631;51.024;13.826;2024-02-21T05:34:20;8.90;99.90
1277;DHT22;631;51.024;13.826;2024-02-21T05:36:46;8.90;99.90
1277;DHT22;631;51.024;13.826;2024-02-21T05:39:12;8.80;99.90
1277;DHT22;631;51.024;13.826;2024-02-21T05:41:38;8.70;99.90
1277;DHT22;631;51.024;13.826;2024-02-21T05:44:04;8.80;99.90
1277;DHT22;631;51.024;13.826;2024-02-21T05:46:29;8.80;99.90
1277;DHT22;631;51.024;13.826;2024-02-21T05:48:55;8.80;99.90
1277;DHT22;631;51.024;13.826;2024-02-21T05:51:20;8.80;99.90
1277;DHT22;631;51.024;13.826;2024-02-21T05:53:46;8.70;99.90
1277;DHT22;631;51.024;13.826;2024-02-21T05:56:12;8.70;99.90
1277;DHT22;631;51.024;13.826;2024-02-21T05:58:39;8.80;99.90
1277;DHT22;631;51.024;13.826;2024-02-21T06:01:05;8.80;99.90
1277;DHT22;631;51.024;13.826;2024-02-21T06:03:32;8.80;99.90
1277;DHT22;631;51.024;13.826;2024-02-21T06:06:01;8.80;99.90
1277;DHT22;631;51.024;13.826;2024-02-21T06:08:27;8.70;99.90
1277;DHT22;631;51.024;13.826;2024-02-21T06:10:53;8.70;99.90
1277;DHT22;631;51.024;13.826;2024-02-21T06:13:29;8.80;99.90
1277;DHT22;631;51.024;13.826;2024-02-21T06:15:54;8.80;99.90
1277;DHT22;631;51.024;13.826;2024-02-21T06:18:20;8.80;99.90
1277;DHT22;631;51.024;13.826;2024-02-21T06:20:46;8.70;99.90
1277;DHT22;631;51.024;13.826;2024-02-21T06:23:16;8.80;99.90
1277;DHT22;631;51.024;13.826;2024-02-21T06:25:42;8.80;99.90
1277;DHT22;631;51.024;13.826;2024-02-21T06:28:08;8.80;99.90
1277;DHT22;631;51.024;13.826;2024-02-21T06:30:33;8.70;99.90
1277;DHT22;631;51.024;13.826;2024-02-21T06:32:59;8.70;99.90
1277;DHT22;631;51.024;13.826;2024-02-21T06:35:25;8.80;99.90
1277;DHT22;631;51.024;13.826;2024-02-21T06:37:51;8.80;99.90
1277;DHT22;631;51.024;13.826;2024-02-21T06:40:26;8.80;99.90
1277;DHT22;631;51.024;13.826;2024-02-21T06:42:51;8.90;99.90
1277;DHT22;631;51.024;13.826;2024-02-21T06:45:17;8.80;99.90
1277;DHT22;631;51.024;13.826;2024-02-21T06:47:43;8.80;99.90
1277;DHT22;631;51.024;13.826;2024-02-21T06:50:09;8.90;99.90
1277;DHT22;631;51.024;13.826;2024-02-21T06:52:35;8.90;99.90
1277;DHT22;631;51.024;13.826;2024-02-21T06:55:01;8.90;99.90
1277;DHT22;631;51.024;13.826;2024-02-21T06:57:28;8.90;99.90
1277;DHT22;631;51.024;13.826;2024-02-21T06:59:57;8.90;99.90
1277;DHT22;631;51.024;13.826;2024-02-21T07:02:22;9.00;99.90
1277;DHT22;631;51.024;13.826;2024-02-21T07:04:48;9.00;99.90
1277;DHT22;631;51.024;13.826;2024-02-21T07:07:14;9.00;99.90
1277;DHT22;631;51.024;13.826;2024-02-21T07:09:39;9.00;99.90
1277;DHT22;631;51.024;13.826;2024-02-21T07:12:05;9.00;99.90
1277;DHT22;631;51.024;13.826;2024-02-21T07:14:36;9.00;99.90
1277;DHT22;631;51.024;13.826;2024-02-21T07:17:02;9.10;99.90
1277;DHT22;631;51.024;13.826;2024-02-21T07:19:27;9.20;99.90
1277;DHT22;631;51.024;13.826;2024-02-21T07:21:53;9.20;99.90
1277;DHT22;631;51.024;13.826;2024-02-21T07:24:18;9.20;99.90
1277;DHT22;631;51.024;13.826;2024-02-21T07:26:44;9.20;99.90
1277;DHT22;631;51.024;13.826;2024-02-21T07:29:10;9.20;99.90
1277;DHT22;631;51.024;13.826;2024-02-21T07:31:43;9.30;99.90
1277;DHT22;631;51.024;13.826;2024-02-21T07:34:09;9.30;99.90
1277;DHT22;631;51.024;13.826;2024-02-21T07:36:36;9.30;99.90
1277;DHT22;631;51.024;13.826;2024-02-21T07:39:03;9.30;99.90
1277;DHT22;631;51.024;13.826;2024-02-21T07:41:30;9.40;99.90
1277;DHT22;631;51.024;13.826;2024-02-21T07:43:56;9.40;99.90
1277;DHT22;631;51.024;13.826;2024-02-21T07:46:21;9.40;99.90
1277;DHT22;631;51.024;13.826;2024-02-21T07:48:47;9.60;99.90
1277;DHT22;631;51.024;13.826;2024-02-21T07:51:13;9.80;99.90
1277;DHT22;631;51.024;13.826;2024-02-21T07:53:39;9.90;99.90
1277;DHT22;631;51.024;13.826;2024-02-21T07:56:13;10.00;99.90
1277;DHT22;631;51.024;13.826;2024-02-21T07:58:39;10.10;99.90
1277;DHT22;631;51.024;13.826;2024-02-21T08:01:05;10.10;99.90
1277;DHT22;631;51.024;13.826;2024-02-21T08:03:30;10.20;99.90
1277;DHT22;631;51.024;13.826;2024-02-21T08:05:56;10.20;99.90
1277;DHT22;631;51.024;13.826;2024-02-21T08:08:22;10.10;99.90
1277;DHT22;631;51.024;13.826;2024-02-21T08:10:50;10.20;99.90
1277;DHT22;631;51.024;13.826;2024-02-21T08:13:16;10.20;99.90
1277;DHT22;631;51.024;13.826;2024-02-21T08:15:42;10.20;99.90
1277;DHT22;631;51.024;13.826;2024-02-21T08:18:08;10.30;99.90
1277;DHT22;631;51.024;13.826;2024-02-21T08:20:33;10.30;99.90
1277;DHT22;631;51.024;13.826;2024-02-21T08:22:59;10.30;99.90
1277;DHT22;631;51.024;13.826;2024-02-21T08:25:25;10.40;99.90
1277;DHT22;631;51.024;13.826;2024-02-21T08:27:50;10.60;99.90
1277;DHT22;631;51.024;13.826;2024-02-21T08:30:17;11.00;99.90
1277;DHT22;631;51.024;13.826;2024-02-21T08:32:43;11.30;99.90
1277;DHT22;631;51.024;13.826;2024-02-21T08:35:08;11.30;99.90
1277;DHT22;631;51.024;13.826;2024-02-21T08:37:34;11.20;99.90
1277;DHT22;631;51.024;13.826;2024-02-21T08:40:00;11.10;99.90
1277;DHT22;631;51.024;13.826;2024-02-21T08:42:35;11.10;99.90
1277;DHT22;631;51.024;13.826;2024-02-21T08:45:01;11.20;99.90
1277;DHT22;631;51.024;13.826;2024-02-21T08:47:26;11.40;99.90
1277;DHT22;631;51.024;13.826;2024-02-21T08:49:52;11.60;99.80
1277;DHT22;631;51.024;13.826;2024-02-21T08:52:18;11.70;99.10
1277;DHT22;631;51.024;13.826;2024-02-21T08:54:43;11.70;99.40
1277;DHT22;631;51.024;13.826;2024-02-21T08:57:09;11.60;98.60
1277;DHT22;631;51.024;13.826;2024-02-21T08:59:35;11.40;99.30
1277;DHT22;631;51.024;13.826;2024-02-21T09:02:00;11.40;98.80
1277;DHT22;631;51.024;13.826;2024-02-21T09:04:28;11.10;99.10
1277;DHT22;631;51.024;13.826;2024-02-21T09:06:54;11.10;99.40
1277;DHT22;631;51.024;13.826;2024-02-21T09:09:20;11.00;99.90
1277;DHT22;631;51.024;13.826;2024-02-21T09:11:46;10.80;99.60
1277;DHT22;631;51.024;13.826;2024-02-21T09:14:11;10.60;99.50
1277;DHT22;631;51.024;13.826;2024-02-21T09:16:37;10.70;99.90
1277;DHT22;631;51.024;13.826;2024-02-21T09:19:03;10.70;99.80
1277;DHT22;631;51.024;13.826;2024-02-21T09:21:28;10.60;99.90
1277;DHT22;631;51.024;13.826;2024-02-21T09:23:54;10.60;99.90
1277;DHT22;631;51.024;13.826;2024-02-21T09:26:20;10.60;99.90
1277;DHT22;631;51.024;13.826;2024-02-21T09:28:45;10.60;99.90
1277;DHT22;631;51.024;13.826;2024-02-21T09:31:11;10.70;99.90
1277;DHT22;631;51.024;13.826;2024-02-21T09:33:37;10.70;99.90
1277;DHT22;631;51.024;13.826;2024-02-21T09:36:03;10.80;99.90
1277;DHT22;631;51.024;13.826;2024-02-21T09:38:31;10.80;99.90
1277;DHT22;631;51.024;13.826;2024-02-21T09:41:25;10.80;99.90
1277;DHT22;631;51.024;13.826;2024-02-21T09:43:50;10.70;99.90
1277;DHT22;631;51.024;13.826;2024-02-21T09:46:19;10.70;99.90
1277;DHT22;631;51.024;13.826;2024-02-21T09:51:53;10.80;99.90
1277;DHT22;631;51.024;13.826;2024-02-21T09:54:19;10.70;99.90
1277;DHT22;631;51.024;13.826;2024-02-21T09:56:46;10.80;99.90
1277;DHT22;631;51.024;13.826;2024-02-21T09:59:15;10.70;99.90
1277;DHT22;631;51.024;13.826;2024-02-21T10:01:45;10.70;99.90
1277;DHT22;631;51.024;13.826;2024-02-21T10:04:14;10.80;99.90
1277;DHT22;631;51.024;13.826;2024-02-21T10:06:40;10.70;99.90
1277;DHT22;631;51.024;13.826;2024-02-21T10:09:07;10.70;99.90
1277;DHT22;631;51.024;13.826;2024-02-21T10:11:33;10.70;99.90
1277;DHT22;631;51.024;13.826;2024-02-21T10:14:05;10.70;99.90
1277;DHT22;631;51.024;13.826;2024-02-21T10:16:30;10.60;99.90
1277;DHT22;631;51.024;13.826;2024-02-21T10:18:56;10.60;99.90
1277;DHT22;631;51.024;13.826;2024-02-21T10:21:22;10.60;99.90
1277;DHT22;631;51.024;13.826;2024-02-21T10:23:51;10.60;99.90
1277;DHT22;631;51.024;13.826;2024-02-21T10:26:18;10.70;99.90
1277;DHT22;631;51.024;13.826;2024-02-21T10:28:45;10.60;99.90
1277;DHT22;631;51.024;13.826;2024-02-21T10:31:25;10.70;99.90
1277;DHT22;631;51.024;13.826;2024-02-21T10:33:59;10.80;99.90
1277;DHT22;631;51.024;13.826;2024-02-21T10:36:25;10.80;99.90
1277;DHT22;631;51.024;13.826;2024-02-21T10:38:52;10.80;99.90
1277;DHT22;631;51.024;13.826;2024-02-21T10:41:20;10.80;99.90
1277;DHT22;631;51.024;13.826;2024-02-21T10:43:51;10.80;99.90
1277;DHT22;631;51.024;13.826;2024-02-21T10:46:21;10.80;99.90
1277;DHT22;631;51.024;13.826;2024-02-21T10:48:51;10.80;99.90
1277;DHT22;631;51.024;13.826;2024-02-21T10:51:20;10.80;99.90
1277;DHT22;631;51.024;13.826;2024-02-21T10:56:33;10.90;99.90
1277;DHT22;631;51.024;13.826;2024-02-21T10:59:04;11.00;99.90
1277;DHT22;631;51.024;13.826;2024-02-21T11:01:30;11.00;99.80
1277;DHT22;631;51.024;13.826;2024-02-21T11:04:08;11.10;99.40
1277;DHT22;631;51.024;13.826;2024-02-21T11:06:36;11.00;99.50
1277;DHT22;631;51.024;13.826;2024-02-21T11:11:35;10.80;99.50
1277;DHT22;631;51.024;13.826;2024-02-21T11:14:08;10.80;99.50
1277;DHT22;631;51.024;13.826;2024-02-21T11:16:41;10.80;99.90
1277;DHT22;631;51.024;13.826;2024-02-21T11:19:20;10.70;99.90
1277;DHT22;631;51.024;13.826;2024-02-21T11:21:46;10.60;99.90
1277;DHT22;631;51.024;13.826;2024-02-21T11:24:13;10.60;99.90
1277;DHT22;631;51.024;13.826;2024-02-21T11:26:40;10.60;99.90
1277;DHT22;631;51.024;13.826;2024-02-21T11:29:07;10.70;99.90
1277;DHT22;631;51.024;13.826;2024-02-21T11:31:44;10.80;99.90
1277;DHT22;631;51.024;13.826;2024-02-21T11:34:17;10.70;99.90
1277;DHT22;631;51.024;13.826;2024-02-21T11:36:51;10.80;99.90
1277;DHT22;631;51.024;13.826;2024-02-21T11:39:22;10.90;99.90
1277;DHT22;631;51.024;13.826;2024-02-21T11:42:03;10.80;99.90
1277;DHT22;631;51.024;13.826;2024-02-21T11:44:30;10.80;99.90
1277;DHT22;631;51.024;13.826;2024-02-21T11:46:55;10.90;99.90
1277;DHT22;631;51.024;13.826;2024-02-21T11:49:21;10.90;99.90
1277;DHT22;631;51.024;13.826;2024-02-21T11:51:47;10.90;99.70
1277;DHT22;631;51.024;13.826;2024-02-21T11:54:13;10.80;99.70
1277;DHT22;631;51.024;13.826;2024-02-21T11:56:42;10.90;99.90
1277;DHT22;631;51.024;13.826;2024-02-21T11:59:08;10.90;99.80
1277;DHT22;631;51.024;13.826;2024-02-21T12:01:34;10.80;99.50
1277;DHT22;631;51.024;13.826;2024-02-21T12:04:00;10.70;99.90
1277;DHT22;631;51.024;13.826;2024-02-21T12:06:25;10.80;99.90
1277;DHT22;631;51.024;13.826;2024-02-21T12:08:51;10.80;99.90
1277;DHT22;631;51.024;13.826;2024-02-21T12:11:22;10.90;99.90
1277;DHT22;631;51.024;13.826;2024-02-21T12:14:08;10.90;99.90
1277;DHT22;631;51.024;13.826;2024-02-21T12:16:35;10.90;99.90
1277;DHT22;631;51.024;13.826;2024-02-21T12:19:04;11.10;99.90
1277;DHT22;631;51.024;13.826;2024-02-21T12:21:35;11.10;99.70
1277;DHT22;631;51.024;13.826;2024-02-21T12:24:15;11.40;99.80
1277;DHT22;631;51.024;13.826;2024-02-21T12:26:41;11.80;98.40
1277;DHT22;631;51.024;13.826;2024-02-21T12:29:07;11.90;97.90
1277;DHT22;631;51.024;13.826;2024-02-21T12:31:37;11.90;98.30
1277;DHT22;631;51.024;13.826;2024-02-21T12:34:03;12.00;97.80
1277;DHT22;631;51.024;13.826;2024-02-21T12:36:31;12.00;97.60
1277;DHT22;631;51.024;13.826;2024-02-21T12:38:57;12.20;98.10
1277;DHT22;631;51.024;13.826;2024-02-21T12:41:22;12.40;98.10
1277;DHT22;631;51.024;13.826;2024-02-21T12:43:48;12.70;97.90
1277;DHT22;631;51.024;13.826;2024-02-21T12:46:13;12.90;96.30
1277;DHT22;631;51.024;13.826;2024-02-21T12:48:39;13.10;95.90
1277;DHT22;631;51.024;13.826;2024-02-21T12:51:05;13.10;95.90
1277;DHT22;631;51.024;13.826;2024-02-21T12:53:31;13.20;96.50
1277;DHT22;631;51.024;13.826;2024-02-21T12:55:57;13.70;95.60
1277;DHT22;631;51.024;13.826;2024-02-21T12:58:22;14.30;93.90
1277;DHT22;631;51.024;13.826;2024-02-21T13:00:48;15.10;92.00
1277;DHT22;631;51.024;13.826;2024-02-21T13:03:14;15.40;90.70
1277;DHT22;631;51.024;13.826;2024-02-21T13:05:40;15.70;90.50
1277;DHT22;631;51.024;13.826;2024-02-21T13:08:09;16.30;90.30
1277;DHT22;631;51.024;13.826;2024-02-21T13:10:35;17.20;86.00
1277;DHT22;631;51.024;13.826;2024-02-21T13:13:01;18.10;80.60
1277;DHT22;631;51.024;13.826;2024-02-21T13:15:27;18.70;74.20
1277;DHT22;631;51.024;13.826;2024-02-21T13:17:55;19.10;69.40
1277;DHT22;631;51.024;13.826;2024-02-21T13:20:20;19.50;67.30
1277;DHT22;631;51.024;13.826;2024-02-21T13:22:46;19.70;64.00
1277;DHT22;631;51.024;13.826;2024-02-21T13:25:12;20.10;61.10
1277;DHT22;631;51.024;13.826;2024-02-21T13:27:43;20.30;60.70
1277;DHT22;631;51.024;13.826;2024-02-21T13:30:10;20.70;56.90
1277;DHT22;631;51.024;13.826;2024-02-21T13:32:35;20.80;55.80
1277;DHT22;631;51.024;13.826;2024-02-21T13:35:01;20.80;54.00
1277;DHT22;631;51.024;13.826;2024-02-21T13:37:28;21.00;54.30
1277;DHT22;631;51.024;13.826;2024-02-21T13:39:54;20.90;53.40
1277;DHT22;631;51.024;13.826;2024-02-21T13:42:20;21.20;53.60
1277;DHT22;631;51.024;13.826;2024-02-21T13:44:46;21.40;52.60
1277;DHT22;631;51.024;13.826;2024-02-21T13:47:15;21.50;51.60
1277;DHT22;631;51.024;13.826;2024-02-21T13:49:41;21.30;51.10
1277;DHT22;631;51.024;13.826;2024-02-21T13:52:07;21.20;51.20
1277;DHT22;631;51.024;13.826;2024-02-21T13:54:32;21.10;51.40
1277;DHT22;631;51.024;13.826;2024-02-21T13:56:58;21.10;50.80
1277;DHT22;631;51.024;13.826;2024-02-21T13:59:24;21.20;50.40
1277;DHT22;631;51.024;13.826;2024-02-21T14:01:49;21.30;49.80
1277;DHT22;631;51.024;13.826;2024-02-21T14:04:15;21.20;50.20
1277;DHT22;631;51.024;13.826;2024-02-21T14:06:40;20.90;50.30
1277;DHT22;631;51.024;13.826;2024-02-21T14:09:10;20.70;50.70
1277;DHT22;631;51.024;13.826;2024-02-21T14:11:36;20.60;49.90
1277;DHT22;631;51.024;13.826;2024-02-21T14:14:04;20.40;50.50
1277;DHT22;631;51.024;13.826;2024-02-21T14:16:31;20.10;51.50
1277;DHT22;631;51.024;13.826;2024-02-21T14:18:57;19.80;52.10
1277;DHT22;631;51.024;13.826;2024-02-21T14:21:22;19.70;52.70
1277;DHT22;631;51.024;13.826;2024-02-21T14:23:48;19.50;51.80
1277;DHT22;631;51.024;13.826;2024-02-21T14:26:13;19.30;52.50
1277;DHT22;631;51.024;13.826;2024-02-21T14:28:42;19.20;52.90
1277;DHT22;631;51.024;13.826;2024-02-21T14:31:08;19.00;52.90
1277;DHT22;631;51.024;13.826;2024-02-21T14:33:37;18.80;53.50
1277;DHT22;631;51.024;13.826;2024-02-21T14:36:03;18.60;54.20
1277;DHT22;631;51.024;13.826;2024-02-21T14:38:29;18.30;54.60
1277;DHT22;631;51.024;13.826;2024-02-21T14:40:54;18.20;54.30
1277;DHT22;631;51.024;13.826;2024-02-21T14:43:20;18.20;55.90
1277;DHT22;631;51.024;13.826;2024-02-21T14:45:49;17.90;55.10
1277;DHT22;631;51.024;13.826;2024-02-21T14:48:15;17.80;56.20
1277;DHT22;631;51.024;13.826;2024-02-21T14:50:41;17.70;55.70
1277;DHT22;631;51.024;13.826;2024-02-21T14:53:08;17.50;55.30
1277;DHT22;631;51.024;13.826;2024-02-21T14:55:34;17.50;56.70
1277;DHT22;631;51.024;13.826;2024-02-21T14:57:59;17.50;57.30
1277;DHT22;631;51.024;13.826;2024-02-21T15:00:26;17.00;56.00
1277;DHT22;631;51.024;13.826;2024-02-21T15:02:58;16.70;56.90
1277;DHT22;631;51.024;13.826;2024-02-21T15:05:24;16.60;57.70
1277;DHT22;631;51.024;13.826;2024-02-21T15:07:50;16.10;58.50
1277;DHT22;631;51.024;13.826;2024-02-21T15:10:16;15.80;59.50
1277;DHT22;631;51.024;13.826;2024-02-21T15:12:45;15.80;60.90
1277;DHT22;631;51.024;13.826;2024-02-21T15:15:10;15.80;61.10
1277;DHT22;631;51.024;13.826;2024-02-21T15:17:36;15.80;62.20
1277;DHT22;631;51.024;13.826;2024-02-21T15:20:01;15.80;62.80
1277;DHT22;631;51.024;13.826;2024-02-21T15:22:30;15.80;62.00
1277;DHT22;631;51.024;13.826;2024-02-21T15:24:55;15.80;62.70
1277;DHT22;631;51.024;13.826;2024-02-21T15:27:21;15.70;62.50
1277;DHT22;631;51.024;13.826;2024-02-21T15:29:47;15.50;62.80
1277;DHT22;631;51.024;13.826;2024-02-21T15:32:12;15.50;65.00
1277;DHT22;631;51.024;13.826;2024-02-21T15:34:38;15.30;65.40
1277;DHT22;631;51.024;13.826;2024-02-21T15:37:03;15.20;65.30
1277;DHT22;631;51.024;13.826;2024-02-21T15:39:29;15.00;66.10
1277;DHT22;631;51.024;13.826;2024-02-21T15:41:55;14.80;66.60
1277;DHT22;631;51.024;13.826;2024-02-21T15:44:23;14.60;67.50
1277;DHT22;631;51.024;13.826;2024-02-21T15:46:50;14.40;68.40
1277;DHT22;631;51.024;13.826;2024-02-21T15:49:17;14.10;69.20
1277;DHT22;631;51.024;13.826;2024-02-21T15:51:43;13.80;70.50
1277;DHT22;631;51.024;13.826;2024-02-21T15:54:09;13.70;72.30
1277;DHT22;631;51.024;13.826;2024-02-21T15:56:35;13.50;73.80
1277;DHT22;631;51.024;13.826;2024-02-21T15:59:01;13.30;75.10
1277;DHT22;631;51.024;13.826;2024-02-21T16:01:30;13.20;76.40
1277;DHT22;631;51.024;13.826;2024-02-21T16:04:01;13.00;77.20
1277;DHT22;631;51.024;13.826;2024-02-21T16:06:27;12.80;79.30
1277;DHT22;631;51.024;13.826;2024-02-21T16:08:53;12.70;81.00
1277;DHT22;631;51.024;13.826;2024-02-21T16:11:19;12.50;81.90
1277;DHT22;631;51.024;13.826;2024-02-21T16:13:45;12.30;83.20
1277;DHT22;631;51.024;13.826;2024-02-21T16:16:15;12.20;85.20
1277;DHT22;631;51.024;13.826;2024-02-21T16:18:41;12.10;87.20
1277;DHT22;631;51.024;13.826;2024-02-21T16:21:07;11.90;89.70